Aviation Digital Data Service (ADDS)

Output produced by TAFs form (0613 UTC 03 July 2015)
found at http://aviationweather.gov/adds/tafs/
 
KDMN 030532Z 0306/0406 01015G25KT P6SM VCTS BKN100CB BKN250 
     FM030900 05010KT P6SM FEW080 BKN250 
     FM031800 10009G16KT P6SM SCT080 BKN250 
     FM032200 11008KT P6SM VCTS SCT070CB BKN250